Terminal Aerodrome Forecast
Issued by NWS

Home | Current Version | Previous Version | Text Only | Print | Product List | Glossary On
Versions: 1 2 3 4 5 6 7 8 9 10 11 12 13 14 15 16
000
FTUS43 KMPX 061923 AAA
TAFRWF
TAF AMD
KRWF 061923Z 0619/0718 35012G20KT 2SM HZ SCT025 BKN035
     FM062100 34011G18KT 5SM HZ SCT040
     FM070000 32007KT P6SM SKC
     FM071500 03005KT P6SM FEW040=

USA.gov is the U.S. government's official web portal to all federal, state and local government web resources and services.